createdAt,value
2023-03-10T00:00:59.329Z,0.00
2023-03-10T00:01:59.448Z,0.00
2023-03-10T00:02:59.532Z,0.00
2023-03-10T00:03:59.700Z,0.00
2023-03-10T00:04:59.841Z,0.00
2023-03-10T00:05:59.988Z,0.00
2023-03-10T00:07:00.150Z,0.00
2023-03-10T00:08:00.180Z,0.00
2023-03-10T00:09:00.376Z,0.00
2023-03-10T00:10:00.467Z,0.00
2023-03-10T00:11:00.575Z,0.00
2023-03-10T00:12:00.691Z,0.00
2023-03-10T00:13:00.778Z,0.00
2023-03-10T00:14:00.924Z,0.00
2023-03-10T00:15:01.035Z,0.00
2023-03-10T00:16:01.254Z,0.00
2023-03-10T00:17:01.255Z,0.00
2023-03-10T00:18:01.351Z,0.00
2023-03-10T00:19:01.492Z,0.00
2023-03-10T00:20:01.658Z,0.00
2023-03-10T00:21:01.761Z,0.00
2023-03-10T00:22:01.896Z,0.00
2023-03-10T00:23:01.995Z,0.00
2023-03-10T00:24:02.187Z,0.00
2023-03-10T00:25:02.315Z,0.00
2023-03-10T00:26:02.422Z,0.00
2023-03-10T00:27:02.575Z,0.00
2023-03-10T00:28:02.624Z,0.00
2023-03-10T00:29:02.849Z,0.00
2023-03-10T00:30:02.905Z,0.00
2023-03-10T00:31:03.133Z,0.00
2023-03-10T00:32:03.186Z,0.00
2023-03-10T00:33:03.307Z,0.00
2023-03-10T00:34:03.396Z,0.00
2023-03-10T00:35:03.567Z,0.00
2023-03-10T00:36:03.718Z,0.00
2023-03-10T00:37:03.818Z,0.00
2023-03-10T00:38:03.938Z,0.00
2023-03-10T00:39:04.075Z,0.00
2023-03-10T00:40:04.158Z,0.00
2023-03-10T00:41:04.267Z,0.00
2023-03-10T00:42:04.410Z,0.00
2023-03-10T00:43:04.537Z,0.00
2023-03-10T00:44:04.837Z,0.00
2023-03-10T00:45:04.778Z,0.00
2023-03-10T00:46:05.028Z,0.00
2023-03-10T00:47:05.068Z,0.00
2023-03-10T00:48:05.224Z,0.00
2023-03-10T00:49:05.348Z,0.00
2023-03-10T00:50:05.457Z,0.00
2023-03-10T00:51:05.577Z,0.00
2023-03-10T00:52:05.702Z,0.00
2023-03-10T00:53:05.877Z,0.00
2023-03-10T00:54:06.005Z,0.00
2023-03-10T00:55:06.106Z,0.00
2023-03-10T00:56:06.204Z,0.00
2023-03-10T00:57:06.305Z,0.00
2023-03-10T00:58:06.417Z,0.00
2023-03-10T00:59:06.564Z,0.00
2023-03-10T01:00:06.665Z,0.00
2023-03-10T01:01:06.773Z,0.00
2023-03-10T01:02:06.946Z,0.00
2023-03-10T01:03:06.996Z,0.00
2023-03-10T01:04:07.204Z,0.00
2023-03-10T01:05:07.317Z,0.00
2023-03-10T01:06:07.426Z,0.00
2023-03-10T01:07:07.568Z,0.00
2023-03-10T01:08:07.662Z,0.00
2023-03-10T01:09:07.780Z,0.00
2023-03-10T01:10:07.872Z,0.00
2023-03-10T01:11:08.053Z,0.00
2023-03-10T01:12:08.153Z,0.00
2023-03-10T01:13:08.294Z,0.00
2023-03-10T01:14:08.394Z,0.00
2023-03-10T01:15:08.548Z,0.00
2023-03-10T01:16:08.799Z,0.00
2023-03-10T01:17:08.854Z,0.00
2023-03-10T01:18:08.970Z,0.00
2023-03-10T01:19:09.053Z,0.00
2023-03-10T01:20:09.199Z,0.00
2023-03-10T01:21:09.491Z,0.00
2023-03-10T01:22:09.432Z,0.00
2023-03-10T01:23:09.538Z,0.00
2023-03-10T01:24:09.639Z,0.00
2023-03-10T01:25:09.788Z,0.00
2023-03-10T01:26:09.936Z,0.00
2023-03-10T01:27:10.029Z,0.00
2023-03-10T01:28:10.189Z,0.00
2023-03-10T01:29:10.303Z,0.00
2023-03-10T01:30:10.409Z,0.00
2023-03-10T01:31:10.598Z,0.00
2023-03-10T01:32:10.678Z,0.00
2023-03-10T01:33:10.756Z,0.00
2023-03-10T01:34:10.919Z,0.00
2023-03-10T01:35:11.064Z,0.00
2023-03-10T01:36:11.210Z,0.00
2023-03-10T01:37:11.287Z,0.00
2023-03-10T01:38:11.430Z,0.00
2023-03-10T01:39:11.573Z,0.00
2023-03-10T01:40:11.723Z,0.00
2023-03-10T01:41:11.865Z,0.00
2023-03-10T01:42:12.034Z,0.00
2023-03-10T01:43:12.103Z,0.00
2023-03-10T01:44:12.259Z,0.00
2023-03-10T01:45:12.410Z,0.00
2023-03-10T01:46:12.531Z,0.00
2023-03-10T01:47:12.608Z,0.00
2023-03-10T01:48:12.767Z,0.00
2023-03-10T01:49:12.916Z,0.00
2023-03-10T01:50:13.009Z,0.00
2023-03-10T01:51:13.156Z,0.00
2023-03-10T01:52:13.280Z,0.00
2023-03-10T01:53:13.380Z,0.00
2023-03-10T01:54:13.508Z,0.00
2023-03-10T01:55:13.605Z,0.00
2023-03-10T01:56:13.756Z,0.00
2023-03-10T01:57:13.888Z,0.00
2023-03-10T01:58:13.983Z,0.00
2023-03-10T01:59:14.118Z,0.00
2023-03-10T02:00:14.272Z,0.00
2023-03-10T02:01:14.469Z,0.00
2023-03-10T02:02:14.559Z,0.00
2023-03-10T02:03:14.624Z,0.00
2023-03-10T02:04:14.714Z,0.00
2023-03-10T02:05:14.824Z,0.00
2023-03-10T02:06:14.984Z,0.00
2023-03-10T02:07:15.082Z,0.00
2023-03-10T02:08:15.171Z,0.00
2023-03-10T02:09:15.334Z,0.00
2023-03-10T02:10:15.458Z,0.00
2023-03-10T02:11:15.565Z,0.00
2023-03-10T02:12:15.652Z,0.00
2023-03-10T02:13:15.776Z,0.00
2023-03-10T02:14:15.872Z,0.00
2023-03-10T02:15:16.025Z,0.00
2023-03-10T02:16:16.103Z,0.00
2023-03-10T02:17:16.223Z,0.00
2023-03-10T02:18:16.375Z,0.00
2023-03-10T02:19:16.492Z,0.00
2023-03-10T02:20:16.712Z,0.00
2023-03-10T02:21:16.754Z,0.00
2023-03-10T02:22:16.853Z,0.00
2023-03-10T02:23:17.002Z,0.00
2023-03-10T02:24:17.104Z,0.00
2023-03-10T02:25:17.264Z,0.00
2023-03-10T02:26:17.423Z,0.00
2023-03-10T02:27:17.538Z,0.00
2023-03-10T02:28:17.632Z,0.00
2023-03-10T02:29:17.742Z,0.00
2023-03-10T02:30:17.863Z,0.00
2023-03-10T02:31:18.007Z,0.00
2023-03-10T02:32:18.143Z,0.00
2023-03-10T02:33:18.233Z,0.00
2023-03-10T02:34:18.403Z,0.00
2023-03-10T02:35:18.452Z,0.00
2023-03-10T02:36:18.621Z,0.00
2023-03-10T02:37:18.729Z,0.00
2023-03-10T02:38:18.830Z,0.00
2023-03-10T02:39:18.990Z,0.00
2023-03-10T02:40:19.103Z,0.00
2023-03-10T02:41:19.251Z,0.00
2023-03-10T02:42:19.380Z,0.00
2023-03-10T02:43:19.536Z,0.00
2023-03-10T02:44:19.641Z,0.00
2023-03-10T02:45:19.738Z,0.00
2023-03-10T02:46:20.100Z,0.00
2023-03-10T02:47:20.023Z,0.00
2023-03-10T02:48:20.139Z,0.00
2023-03-10T02:49:20.216Z,0.00
2023-03-10T02:50:20.374Z,0.00
2023-03-10T02:51:20.540Z,0.00
2023-03-10T02:52:20.634Z,0.00
2023-03-10T02:53:20.744Z,0.00
2023-03-10T02:54:20.906Z,0.00
2023-03-10T02:55:21.025Z,0.00
2023-03-10T02:56:21.187Z,0.00
2023-03-10T02:57:21.273Z,0.00
2023-03-10T02:58:21.425Z,0.00
2023-03-10T02:59:21.524Z,0.00
2023-03-10T03:00:21.681Z,0.00
2023-03-10T03:01:21.903Z,0.00
2023-03-10T03:02:21.974Z,0.00
2023-03-10T03:03:22.081Z,0.00
2023-03-10T03:04:22.210Z,0.00
2023-03-10T03:05:22.300Z,0.00
2023-03-10T03:06:22.490Z,0.00
2023-03-10T03:07:26.207Z,0.00
2023-03-10T03:08:22.748Z,0.00
2023-03-10T03:09:22.846Z,0.00
2023-03-10T03:10:22.991Z,0.00
2023-03-10T03:11:23.212Z,0.00
2023-03-10T03:12:23.255Z,0.00
2023-03-10T03:13:23.356Z,0.00
2023-03-10T03:14:23.457Z,0.00
2023-03-10T03:15:23.561Z,0.00
2023-03-10T03:16:23.828Z,0.00
2023-03-10T03:17:23.748Z,0.00
2023-03-10T03:18:23.889Z,0.00
2023-03-10T03:19:24.039Z,0.00
2023-03-10T03:20:24.177Z,0.00
2023-03-10T03:21:24.287Z,0.00
2023-03-10T03:22:24.396Z,0.00
2023-03-10T03:23:24.545Z,0.00
2023-03-10T03:24:24.685Z,0.00
2023-03-10T03:25:24.847Z,0.00
2023-03-10T03:26:24.972Z,0.00
2023-03-10T03:27:25.090Z,0.00
2023-03-10T03:28:25.215Z,0.00
2023-03-10T03:29:25.334Z,0.00
2023-03-10T03:30:25.437Z,0.00
2023-03-10T03:31:25.709Z,0.00
2023-03-10T03:32:25.718Z,0.00
2023-03-10T03:33:25.808Z,0.00
2023-03-10T03:34:26.058Z,0.00
2023-03-10T03:35:26.063Z,0.00
2023-03-10T03:36:26.150Z,0.00
2023-03-10T03:37:26.269Z,0.00
2023-03-10T03:38:26.360Z,0.00
2023-03-10T03:39:26.577Z,0.00
2023-03-10T03:40:26.661Z,0.00
2023-03-10T03:41:26.816Z,0.00
2023-03-10T03:42:26.926Z,0.00
2023-03-10T03:43:27.033Z,0.00
2023-03-10T03:44:27.160Z,0.00
2023-03-10T03:45:27.302Z,0.00
2023-03-10T03:46:27.522Z,0.00
2023-03-10T03:47:27.577Z,0.00
2023-03-10T03:48:27.730Z,0.00
2023-03-10T03:49:27.865Z,0.00
2023-03-10T03:50:27.976Z,0.00
2023-03-10T03:51:28.077Z,0.00
2023-03-10T03:52:28.167Z,0.00
2023-03-10T03:53:28.368Z,0.00
2023-03-10T03:54:28.995Z,0.00
2023-03-10T03:55:28.561Z,0.00
2023-03-10T03:56:28.666Z,0.00
2023-03-10T03:57:28.765Z,0.00
2023-03-10T03:58:28.876Z,0.00
2023-03-10T03:59:28.997Z,0.00
2023-03-10T04:00:29.086Z,0.00
2023-03-10T04:01:29.271Z,0.00
2023-03-10T04:02:29.363Z,0.00
2023-03-10T04:03:29.527Z,0.00
2023-03-10T04:04:29.549Z,0.00
2023-03-10T04:05:29.717Z,0.00
2023-03-10T04:06:29.811Z,0.00
2023-03-10T04:07:29.915Z,0.00
2023-03-10T04:08:30.059Z,0.00
2023-03-10T04:09:30.149Z,0.00
2023-03-10T04:10:30.307Z,0.00
2023-03-10T04:11:30.437Z,0.00
2023-03-10T04:12:30.616Z,0.00
2023-03-10T04:13:30.712Z,0.00
2023-03-10T04:14:30.858Z,0.00
2023-03-10T04:15:30.985Z,0.00
2023-03-10T04:16:31.075Z,0.00
2023-03-10T04:17:31.309Z,0.00
2023-03-10T04:18:31.300Z,0.00
2023-03-10T04:19:31.452Z,0.00
2023-03-10T04:20:31.633Z,0.00
2023-03-10T04:21:31.743Z,0.00
2023-03-10T04:22:31.860Z,0.00
2023-03-10T04:23:31.966Z,0.00
2023-03-10T04:24:32.041Z,0.00
2023-03-10T04:25:32.210Z,0.00
2023-03-10T04:26:32.322Z,0.00
2023-03-10T04:27:32.419Z,0.00
2023-03-10T04:28:32.573Z,0.00
2023-03-10T04:29:32.719Z,0.00
2023-03-10T04:30:32.870Z,0.00
2023-03-10T04:31:33.049Z,0.00
2023-03-10T04:32:33.169Z,0.00
2023-03-10T04:33:33.273Z,0.00
2023-03-10T04:34:33.406Z,0.00
2023-03-10T04:35:33.576Z,0.00
2023-03-10T04:36:33.661Z,0.00
2023-03-10T04:37:33.780Z,0.00
2023-03-10T04:38:33.895Z,0.00
2023-03-10T04:39:34.025Z,0.00
2023-03-10T04:40:34.119Z,0.00
2023-03-10T04:41:34.268Z,0.00
2023-03-10T04:42:34.419Z,0.00
2023-03-10T04:43:34.518Z,0.00
2023-03-10T04:44:34.660Z,0.00
2023-03-10T04:45:34.839Z,0.00
2023-03-10T04:46:35.015Z,0.00
2023-03-10T04:47:35.026Z,0.00
2023-03-10T04:48:35.208Z,0.00
2023-03-10T04:49:35.257Z,0.00
2023-03-10T04:50:35.356Z,0.00
2023-03-10T04:51:35.487Z,0.00
2023-03-10T04:52:35.597Z,0.00
2023-03-10T04:53:35.869Z,0.00
2023-03-10T04:54:35.879Z,0.00
2023-03-10T04:55:35.946Z,0.00
2023-03-10T04:56:36.066Z,0.00
2023-03-10T04:57:36.201Z,0.00
2023-03-10T04:58:36.313Z,0.00
2023-03-10T04:59:36.394Z,0.00
2023-03-10T05:00:36.540Z,0.00
2023-03-10T05:01:36.704Z,0.00
2023-03-10T05:02:36.733Z,0.00
2023-03-10T05:03:36.877Z,0.00
2023-03-10T05:04:37.027Z,0.00
2023-03-10T05:05:37.680Z,0.00
2023-03-10T05:06:37.280Z,0.00
2023-03-10T05:07:37.380Z,0.00
2023-03-10T05:08:37.548Z,0.00
2023-03-10T05:09:37.652Z,0.00
2023-03-10T05:10:37.754Z,0.00
2023-03-10T05:11:37.867Z,0.00
2023-03-10T05:12:37.977Z,0.00
2023-03-10T05:13:38.100Z,0.00
2023-03-10T05:14:38.200Z,0.00
2023-03-10T05:15:38.296Z,0.00
2023-03-10T05:16:38.443Z,0.00
2023-03-10T05:17:38.579Z,0.00
2023-03-10T05:18:38.657Z,0.00
2023-03-10T05:19:38.799Z,0.00
2023-03-10T05:20:38.926Z,0.00
2023-03-10T05:21:39.027Z,0.00
2023-03-10T05:22:39.234Z,0.00
2023-03-10T05:23:39.273Z,0.00
2023-03-10T05:24:39.425Z,0.00
2023-03-10T05:25:39.642Z,0.00
2023-03-10T05:26:39.653Z,0.00
2023-03-10T05:27:39.821Z,0.00
2023-03-10T05:28:39.950Z,0.00
2023-03-10T05:29:40.068Z,0.00
2023-03-10T05:30:40.172Z,0.00
2023-03-10T05:31:40.342Z,0.00
2023-03-10T05:32:40.452Z,0.00
2023-03-10T05:33:40.521Z,0.00
2023-03-10T05:34:40.637Z,0.00
2023-03-10T05:35:40.751Z,0.00
2023-03-10T05:36:40.840Z,0.00
2023-03-10T05:37:40.933Z,0.00
2023-03-10T05:38:41.082Z,0.00
2023-03-10T05:39:41.263Z,0.00
2023-03-10T05:40:41.468Z,0.00
2023-03-10T05:41:41.480Z,0.00
2023-03-10T05:42:41.627Z,0.00
2023-03-10T05:43:41.778Z,0.00
2023-03-10T05:44:41.888Z,0.00
2023-03-10T05:45:42.070Z,0.00
2023-03-10T05:46:42.119Z,0.00
2023-03-10T05:47:42.262Z,0.00
2023-03-10T05:48:42.357Z,0.00
2023-03-10T05:49:42.474Z,0.00
2023-03-10T05:50:42.650Z,0.00
2023-03-10T05:51:42.778Z,0.00
2023-03-10T05:52:42.898Z,0.00
2023-03-10T05:53:43.022Z,0.00
2023-03-10T05:54:43.165Z,0.00
2023-03-10T05:55:43.265Z,0.00
2023-03-10T05:56:43.386Z,5.62
2023-03-10T05:57:43.531Z,5.62
2023-03-10T05:58:43.628Z,5.62
2023-03-10T05:59:43.741Z,5.62
2023-03-10T06:00:43.849Z,5.62
2023-03-10T06:01:43.960Z,5.62
2023-03-10T06:02:44.088Z,5.62
2023-03-10T06:03:44.309Z,5.62
2023-03-10T06:04:44.326Z,11.25
2023-03-10T06:05:44.437Z,11.25
2023-03-10T06:06:44.546Z,11.25
2023-03-10T06:07:44.704Z,11.25
2023-03-10T06:08:44.823Z,11.25
2023-03-10T06:09:44.908Z,11.25
2023-03-10T06:10:45.056Z,16.88
2023-03-10T06:11:45.206Z,16.88
2023-03-10T06:12:45.372Z,16.88
2023-03-10T06:13:45.473Z,16.88
2023-03-10T06:14:45.595Z,16.88
2023-03-10T06:15:45.698Z,16.88
2023-03-10T06:16:45.894Z,16.88
2023-03-10T06:17:46.021Z,11.25
2023-03-10T06:18:46.141Z,11.25
2023-03-10T06:19:46.235Z,16.88
2023-03-10T06:20:46.387Z,16.88
2023-03-10T06:21:46.530Z,16.88
2023-03-10T06:22:46.633Z,16.88
2023-03-10T06:23:46.732Z,22.50
2023-03-10T06:24:46.852Z,22.50
2023-03-10T06:25:46.955Z,22.50
2023-03-10T06:26:47.070Z,22.50
2023-03-10T06:27:47.235Z,22.50
2023-03-10T06:28:47.299Z,28.12
2023-03-10T06:29:47.441Z,28.12
2023-03-10T06:30:47.539Z,33.75
2023-03-10T06:31:47.778Z,33.75
2023-03-10T06:32:47.852Z,39.38
2023-03-10T06:33:47.985Z,50.62
2023-03-10T06:34:48.070Z,61.88
2023-03-10T06:35:48.296Z,73.12
2023-03-10T06:36:48.343Z,84.38
2023-03-10T06:37:48.451Z,73.12
2023-03-10T06:38:48.568Z,73.12
2023-03-10T06:39:48.656Z,67.50
2023-03-10T06:40:48.793Z,56.25
2023-03-10T06:41:48.913Z,56.25
2023-03-10T06:42:49.008Z,67.50
2023-03-10T06:43:49.200Z,56.25
2023-03-10T06:44:49.410Z,56.25
2023-03-10T06:45:49.470Z,61.88
2023-03-10T06:46:49.551Z,73.12
2023-03-10T06:47:49.650Z,84.38
2023-03-10T06:48:49.838Z,95.62
2023-03-10T06:49:49.932Z,95.62
2023-03-10T06:50:50.050Z,90.00
2023-03-10T06:51:50.149Z,90.00
2023-03-10T06:52:50.329Z,95.62
2023-03-10T06:53:50.429Z,106.88
2023-03-10T06:54:50.568Z,112.50
2023-03-10T06:55:50.709Z,123.75
2023-03-10T06:56:50.871Z,123.75
2023-03-10T06:57:51.050Z,135.00
2023-03-10T06:58:51.144Z,163.12
2023-03-10T06:59:51.241Z,163.12
2023-03-10T07:00:51.420Z,151.88
2023-03-10T07:01:51.453Z,151.88
2023-03-10T07:02:51.546Z,151.88
2023-03-10T07:03:51.694Z,151.88
2023-03-10T07:04:51.825Z,140.62
2023-03-10T07:05:51.933Z,151.88
2023-03-10T07:06:52.033Z,151.88
2023-03-10T07:07:52.143Z,129.38
2023-03-10T07:08:52.294Z,135.00
2023-03-10T07:09:52.351Z,151.88
2023-03-10T07:10:52.449Z,157.50
2023-03-10T07:11:52.615Z,168.75
2023-03-10T07:12:52.691Z,180.00
2023-03-10T07:13:52.874Z,191.25
2023-03-10T07:14:52.999Z,208.12
2023-03-10T07:15:53.090Z,219.38
2023-03-10T07:16:53.408Z,264.38
2023-03-10T07:17:53.349Z,241.88
2023-03-10T07:18:53.497Z,185.62
2023-03-10T07:19:53.688Z,168.75
2023-03-10T07:20:53.777Z,174.38
2023-03-10T07:21:53.930Z,236.25
2023-03-10T07:22:54.069Z,236.25
2023-03-10T07:23:54.179Z,241.88
2023-03-10T07:24:54.314Z,202.50
2023-03-10T07:25:54.431Z,185.62
2023-03-10T07:26:54.533Z,185.62
2023-03-10T07:27:54.673Z,185.62
2023-03-10T07:28:54.784Z,275.62
2023-03-10T07:29:54.933Z,264.38
2023-03-10T07:30:55.187Z,326.25
2023-03-10T07:31:55.162Z,331.88
2023-03-10T07:32:55.339Z,354.38
2023-03-10T07:33:55.396Z,405.00
2023-03-10T07:34:55.524Z,298.12
2023-03-10T07:35:55.701Z,258.75
2023-03-10T07:36:55.760Z,247.50
2023-03-10T07:37:55.897Z,258.75
2023-03-10T07:38:56.012Z,264.38
2023-03-10T07:39:56.133Z,286.88
2023-03-10T07:40:56.253Z,292.50
2023-03-10T07:41:56.352Z,281.25
2023-03-10T07:42:56.456Z,286.88
2023-03-10T07:43:56.572Z,286.88
2023-03-10T07:44:56.722Z,275.62
2023-03-10T07:45:56.912Z,264.38
2023-03-10T07:46:56.937Z,253.12
2023-03-10T07:47:57.051Z,241.88
2023-03-10T07:48:57.693Z,247.50
2023-03-10T07:49:57.329Z,247.50
2023-03-10T07:50:57.401Z,253.12
2023-03-10T07:51:57.479Z,253.12
2023-03-10T07:52:57.581Z,247.50
2023-03-10T07:53:57.694Z,241.88
2023-03-10T07:54:57.803Z,247.50
2023-03-10T07:55:57.935Z,253.12
2023-03-10T07:56:58.123Z,253.12
2023-03-10T07:57:58.224Z,247.50
2023-03-10T07:58:58.299Z,258.75
2023-03-10T07:59:58.431Z,281.25
2023-03-10T08:00:58.575Z,315.00
2023-03-10T08:01:58.688Z,348.75
2023-03-10T08:02:58.813Z,371.25
2023-03-10T08:03:59.055Z,399.38
2023-03-10T08:04:59.132Z,393.75
2023-03-10T08:05:59.211Z,405.00
2023-03-10T08:06:59.268Z,399.38
2023-03-10T08:07:59.388Z,393.75
2023-03-10T08:08:59.493Z,405.00
2023-03-10T08:09:59.601Z,393.75
2023-03-10T08:10:59.726Z,388.12
2023-03-10T08:11:59.826Z,405.00
2023-03-10T08:12:59.937Z,506.25
2023-03-10T08:14:00.216Z,421.88
2023-03-10T08:15:00.173Z,472.50
2023-03-10T08:16:00.389Z,478.12
2023-03-10T08:17:00.455Z,495.00
2023-03-10T08:18:00.556Z,466.88
2023-03-10T08:19:00.666Z,613.12
2023-03-10T08:20:00.742Z,596.25
2023-03-10T08:21:00.902Z,483.75
2023-03-10T08:22:01.105Z,466.88
2023-03-10T08:23:01.111Z,466.88
2023-03-10T08:24:01.201Z,534.38
2023-03-10T08:25:01.353Z,540.00
2023-03-10T08:26:01.503Z,635.62
2023-03-10T08:27:01.659Z,562.50
2023-03-10T08:28:01.706Z,573.75
2023-03-10T08:29:01.820Z,652.50
2023-03-10T08:30:01.916Z,607.50
2023-03-10T08:31:05.358Z,613.12
2023-03-10T08:32:02.248Z,624.38
2023-03-10T08:33:02.348Z,613.12
2023-03-10T08:34:02.369Z,585.00
2023-03-10T08:35:02.471Z,540.00
2023-03-10T08:36:02.584Z,523.12
2023-03-10T08:37:02.694Z,523.12
2023-03-10T08:38:02.799Z,517.50
2023-03-10T08:39:02.898Z,506.25
2023-03-10T08:40:03.050Z,511.88
2023-03-10T08:41:03.108Z,523.12
2023-03-10T08:42:03.208Z,528.75
2023-03-10T08:43:03.307Z,568.12
2023-03-10T08:44:03.437Z,562.50
2023-03-10T08:45:03.520Z,523.12
2023-03-10T08:46:03.620Z,472.50
2023-03-10T08:47:03.801Z,461.25
2023-03-10T08:48:03.879Z,540.00
2023-03-10T08:49:04.004Z,590.62
2023-03-10T08:50:04.109Z,613.12
2023-03-10T08:51:04.220Z,545.62
2023-03-10T08:52:04.335Z,534.38
2023-03-10T08:53:04.450Z,427.50
2023-03-10T08:54:04.540Z,455.62
2023-03-10T08:55:04.719Z,433.12
2023-03-10T08:56:04.809Z,371.25
2023-03-10T08:57:04.978Z,472.50
2023-03-10T08:58:05.112Z,393.75
2023-03-10T08:59:05.213Z,663.75
2023-03-10T09:00:05.319Z,742.50
2023-03-10T09:01:05.432Z,753.75
2023-03-10T09:02:05.628Z,855.00
2023-03-10T09:03:05.769Z,776.25
2023-03-10T09:04:05.806Z,675.00
2023-03-10T09:05:05.917Z,658.12
2023-03-10T09:06:06.028Z,545.62
2023-03-10T09:07:06.132Z,720.00
2023-03-10T09:08:06.240Z,450.00
2023-03-10T09:09:06.356Z,376.88
2023-03-10T09:10:06.449Z,781.88
2023-03-10T09:11:06.573Z,736.88
2023-03-10T09:12:06.720Z,686.25
2023-03-10T09:13:13.782Z,714.38
2023-03-10T09:14:08.013Z,714.38
2023-03-10T09:15:07.058Z,720.00
2023-03-10T09:16:09.298Z,759.38
2023-03-10T09:17:07.298Z,691.88
2023-03-10T09:18:07.405Z,736.88
2023-03-10T09:19:07.508Z,759.38
2023-03-10T09:20:07.662Z,630.00
2023-03-10T09:21:07.752Z,624.38
2023-03-10T09:22:07.846Z,680.62
2023-03-10T09:23:07.954Z,607.50
2023-03-10T09:24:08.073Z,635.62
2023-03-10T09:25:08.573Z,742.50
2023-03-10T09:26:08.304Z,759.38
2023-03-10T09:27:08.468Z,765.00
2023-03-10T09:28:08.575Z,770.62
2023-03-10T09:29:09.223Z,714.38
2023-03-10T09:30:08.821Z,663.75
2023-03-10T09:31:09.021Z,613.12
2023-03-10T09:32:09.225Z,556.88
2023-03-10T09:33:09.220Z,568.12
2023-03-10T09:34:09.258Z,534.38
2023-03-10T09:35:09.392Z,562.50
2023-03-10T09:36:09.555Z,556.88
2023-03-10T09:37:09.630Z,573.75
2023-03-10T09:38:09.759Z,590.62
2023-03-10T09:39:09.882Z,590.62
2023-03-10T09:40:09.974Z,585.00
2023-03-10T09:41:10.106Z,534.38
2023-03-10T09:42:10.929Z,461.25
2023-03-10T09:43:10.322Z,388.12
2023-03-10T09:44:10.513Z,326.25
2023-03-10T09:45:10.593Z,343.12
2023-03-10T09:46:10.701Z,399.38
2023-03-10T09:47:10.817Z,416.25
2023-03-10T09:48:10.954Z,399.38
2023-03-10T09:49:11.047Z,416.25
2023-03-10T09:50:11.142Z,478.12
2023-03-10T09:51:11.261Z,483.75
2023-03-10T09:52:11.365Z,450.00
2023-03-10T09:53:11.471Z,466.88
2023-03-10T09:54:11.602Z,478.12
2023-03-10T09:55:13.258Z,472.50
2023-03-10T09:56:11.809Z,500.62
2023-03-10T09:57:11.916Z,506.25
2023-03-10T09:58:12.014Z,506.25
2023-03-10T09:59:12.151Z,478.12
2023-03-10T10:00:12.252Z,461.25
2023-03-10T10:01:12.342Z,455.62
2023-03-10T10:02:12.470Z,506.25
2023-03-10T10:03:12.620Z,545.62
2023-03-10T10:04:12.845Z,607.50
2023-03-10T10:05:12.858Z,675.00
2023-03-10T10:06:12.984Z,675.00
2023-03-10T10:07:13.115Z,686.25
2023-03-10T10:08:13.241Z,697.50
2023-03-10T10:09:13.350Z,759.38
2023-03-10T10:10:13.455Z,815.62
2023-03-10T10:11:13.564Z,793.12
2023-03-10T10:12:13.687Z,669.38
2023-03-10T10:13:13.803Z,601.88
2023-03-10T10:14:22.222Z,652.50
2023-03-10T10:15:15.068Z,613.12
2023-03-10T10:16:28.204Z,528.75
2023-03-10T10:17:15.352Z,528.75
2023-03-10T10:18:23.386Z,652.50
2023-03-10T10:19:15.514Z,815.62
2023-03-10T10:20:14.632Z,776.25
2023-03-10T10:21:14.742Z,691.88
2023-03-10T10:22:14.843Z,630.00
2023-03-10T10:23:14.946Z,551.25
2023-03-10T10:24:15.059Z,528.75
2023-03-10T10:25:15.191Z,495.00
2023-03-10T10:26:15.274Z,444.38
2023-03-10T10:27:15.474Z,405.00
2023-03-10T10:28:15.573Z,410.62
2023-03-10T10:29:15.680Z,382.50
2023-03-10T10:30:15.805Z,354.38
2023-03-10T10:31:15.993Z,376.88
2023-03-10T10:32:16.086Z,388.12
2023-03-10T10:33:16.160Z,343.12
2023-03-10T10:34:18.600Z,365.62
2023-03-10T10:35:16.475Z,281.25
2023-03-10T10:36:16.614Z,275.62
2023-03-10T10:37:16.688Z,258.75
2023-03-10T10:38:16.797Z,230.62
2023-03-10T10:39:16.889Z,219.38
2023-03-10T10:40:17.041Z,185.62
2023-03-10T10:41:17.211Z,180.00
2023-03-10T10:42:17.310Z,157.50
2023-03-10T10:43:17.417Z,157.50
2023-03-10T10:44:17.568Z,151.88
2023-03-10T10:45:17.672Z,118.12
2023-03-10T10:46:17.869Z,146.25
2023-03-10T10:47:17.979Z,140.62
2023-03-10T10:48:18.080Z,151.88
2023-03-10T10:49:18.252Z,174.38
2023-03-10T10:50:18.400Z,168.75
2023-03-10T10:51:18.488Z,168.75
2023-03-10T10:52:18.559Z,180.00
2023-03-10T10:53:18.731Z,180.00
2023-03-10T10:54:18.839Z,208.12
2023-03-10T10:55:18.949Z,196.88
2023-03-10T10:56:19.103Z,258.75
2023-03-10T10:57:19.300Z,292.50
2023-03-10T10:58:19.408Z,348.75
2023-03-10T10:59:19.566Z,421.88
2023-03-10T11:00:19.640Z,461.25
2023-03-10T11:01:19.858Z,483.75
2023-03-10T11:02:19.944Z,478.12
2023-03-10T11:03:20.040Z,478.12
2023-03-10T11:04:20.195Z,455.62
2023-03-10T11:05:20.246Z,421.88
2023-03-10T11:06:20.342Z,348.75
2023-03-10T11:07:20.494Z,275.62
2023-03-10T11:08:20.606Z,225.00
2023-03-10T11:09:20.726Z,202.50
2023-03-10T11:10:20.823Z,191.25
2023-03-10T11:11:20.979Z,185.62
2023-03-10T11:12:21.122Z,219.38
2023-03-10T11:13:21.256Z,264.38
2023-03-10T11:14:21.367Z,320.62
2023-03-10T11:15:21.475Z,326.25
2023-03-10T11:16:21.566Z,331.88
2023-03-10T11:17:21.758Z,298.12
2023-03-10T11:18:21.869Z,292.50
2023-03-10T11:19:21.995Z,292.50
2023-03-10T11:20:22.306Z,337.50
2023-03-10T11:21:22.204Z,410.62
2023-03-10T11:22:22.354Z,427.50
2023-03-10T11:23:22.506Z,455.62
2023-03-10T11:24:24.523Z,540.00
2023-03-10T11:25:22.794Z,585.00
2023-03-10T11:26:22.835Z,596.25
2023-03-10T11:27:22.978Z,579.38
2023-03-10T11:28:23.121Z,596.25
2023-03-10T11:29:23.293Z,523.12
2023-03-10T11:30:25.539Z,495.00
2023-03-10T11:31:23.519Z,438.75
2023-03-10T11:32:23.624Z,393.75
2023-03-10T11:33:23.702Z,354.38
2023-03-10T11:34:23.803Z,354.38
2023-03-10T11:35:23.891Z,371.25
2023-03-10T11:36:24.043Z,427.50
2023-03-10T11:37:24.192Z,416.25
2023-03-10T11:38:24.309Z,478.12
2023-03-10T11:39:24.402Z,478.12
2023-03-10T11:40:24.522Z,500.62
2023-03-10T11:41:24.652Z,534.38
2023-03-10T11:42:26.204Z,607.50
2023-03-10T11:43:24.896Z,568.12
2023-03-10T11:44:24.993Z,450.00
2023-03-10T11:45:25.137Z,410.62
2023-03-10T11:46:25.331Z,348.75
2023-03-10T11:47:25.444Z,360.00
2023-03-10T11:48:25.556Z,331.88
2023-03-10T11:49:25.639Z,320.62
2023-03-10T11:50:25.769Z,326.25
2023-03-10T11:51:25.869Z,354.38
2023-03-10T11:52:25.981Z,348.75
2023-03-10T11:53:26.121Z,354.38
2023-03-10T11:54:27.013Z,315.00
2023-03-10T11:55:26.296Z,360.00
2023-03-10T11:56:26.411Z,326.25
2023-03-10T11:57:26.496Z,466.88
2023-03-10T11:58:26.655Z,410.62
2023-03-10T11:59:26.817Z,416.25
2023-03-10T12:00:26.945Z,399.38
2023-03-10T12:01:27.049Z,354.38
2023-03-10T12:02:27.165Z,348.75
2023-03-10T12:03:27.274Z,303.75
2023-03-10T12:04:27.426Z,286.88
2023-03-10T12:05:27.590Z,292.50
2023-03-10T12:06:27.668Z,292.50
2023-03-10T12:07:27.761Z,360.00
2023-03-10T12:08:27.895Z,365.62
2023-03-10T12:09:28.042Z,405.00
2023-03-10T12:10:28.160Z,376.88
2023-03-10T12:11:28.248Z,331.88
2023-03-10T12:12:28.404Z,292.50
2023-03-10T12:13:28.493Z,281.25
2023-03-10T12:14:28.642Z,320.62
2023-03-10T12:15:28.812Z,286.88
2023-03-10T12:16:28.986Z,354.38
2023-03-10T12:17:29.049Z,360.00
2023-03-10T12:18:29.154Z,371.25
2023-03-10T12:19:29.250Z,292.50
2023-03-10T12:20:29.393Z,382.50
2023-03-10T12:21:29.528Z,326.25
2023-03-10T12:22:29.620Z,427.50
2023-03-10T12:23:29.743Z,421.88
2023-03-10T12:24:29.840Z,393.75
2023-03-10T12:25:30.000Z,433.12
2023-03-10T12:26:30.073Z,393.75
2023-03-10T12:27:30.207Z,450.00
2023-03-10T12:28:30.309Z,382.50
2023-03-10T12:29:30.460Z,365.62
2023-03-10T12:30:30.575Z,354.38
2023-03-10T12:31:30.770Z,388.12
2023-03-10T12:32:30.882Z,416.25
2023-03-10T12:33:30.934Z,427.50
2023-03-10T12:34:31.005Z,399.38
2023-03-10T12:35:31.174Z,343.12
2023-03-10T12:36:31.404Z,376.88
2023-03-10T12:37:31.401Z,438.75
2023-03-10T12:38:31.538Z,438.75
2023-03-10T12:39:31.638Z,309.38
2023-03-10T12:40:31.734Z,326.25
2023-03-10T12:41:31.892Z,264.38
2023-03-10T12:42:32.005Z,315.00
2023-03-10T12:43:32.167Z,219.38
2023-03-10T12:44:32.264Z,258.75
2023-03-10T12:45:32.382Z,225.00
2023-03-10T12:46:32.542Z,320.62
2023-03-10T12:47:32.671Z,331.88
2023-03-10T12:48:32.791Z,331.88
2023-03-10T12:49:33.434Z,315.00
2023-03-10T12:50:33.033Z,399.38
2023-03-10T12:51:33.470Z,382.50
2023-03-10T12:52:33.349Z,365.62
2023-03-10T12:53:33.583Z,416.25
2023-03-10T12:54:33.596Z,343.12